createdAt,value
2017-12-01T00:00:44.802Z,18.90
2017-12-01T00:03:11.771Z,19.60
2017-12-01T00:05:38.724Z,17.80
2017-12-01T00:08:05.647Z,18.80
2017-12-01T00:10:31.963Z,19.10
2017-12-01T00:12:58.180Z,18.47
2017-12-01T00:15:24.441Z,23.67
2017-12-01T00:17:51.401Z,19.63
2017-12-01T00:20:20.260Z,19.50
2017-12-01T00:22:47.254Z,17.20
2017-12-01T00:25:13.894Z,16.63
2017-12-01T00:27:41.292Z,18.30
2017-12-01T00:30:07.559Z,18.50
2017-12-01T00:32:34.569Z,17.30
2017-12-01T00:35:00.843Z,18.30
2017-12-01T00:37:27.095Z,20.40
2017-12-01T00:39:53.344Z,17.30
2017-12-01T00:42:19.612Z,18.60
2017-12-01T00:44:46.564Z,18.40
2017-12-01T00:47:13.599Z,20.40
2017-12-01T00:49:39.823Z,19.20
2017-12-01T00:52:07.223Z,17.50
2017-12-01T00:54:33.476Z,18.43
2017-12-01T00:56:59.734Z,16.37
2017-12-01T00:59:25.999Z,17.57
2017-12-01T01:01:52.302Z,17.53
2017-12-01T01:04:19.302Z,17.50
2017-12-01T01:06:45.648Z,17.33
2017-12-01T01:09:11.902Z,17.20
2017-12-01T01:11:38.154Z,18.20
2017-12-01T01:14:05.119Z,17.43
2017-12-01T01:16:31.381Z,19.93
2017-12-01T01:18:57.674Z,18.33
2017-12-01T01:21:23.952Z,20.53
2017-12-01T01:23:50.242Z,17.40
2017-12-01T01:26:16.481Z,16.10
2017-12-01T01:28:42.746Z,18.77
2017-12-01T01:31:09.026Z,17.87
2017-12-01T01:33:35.352Z,20.10
2017-12-01T01:36:01.623Z,22.87
2017-12-01T01:38:27.939Z,20.03
2017-12-01T01:40:54.222Z,21.80
2017-12-01T01:43:21.223Z,17.90
2017-12-01T01:45:47.534Z,15.80
2017-12-01T01:48:13.877Z,18.80
2017-12-01T01:50:40.657Z,17.73
2017-12-01T01:53:10.048Z,22.87
2017-12-01T01:55:36.358Z,14.73
2017-12-01T01:58:02.626Z,17.00
2017-12-01T02:00:29.658Z,17.47
2017-12-01T02:02:55.984Z,18.70
2017-12-01T02:05:22.287Z,17.83
2017-12-01T02:07:50.231Z,16.30
2017-12-01T02:10:16.502Z,18.20
2017-12-01T02:12:42.738Z,18.87
2017-12-01T02:15:09.089Z,18.53
2017-12-01T02:17:36.106Z,17.00
2017-12-01T02:20:02.417Z,17.23
2017-12-01T02:22:28.671Z,16.90
2017-12-01T02:24:55.035Z,18.60
2017-12-01T02:27:22.083Z,22.80
2017-12-01T02:29:49.099Z,19.30
2017-12-01T02:32:16.151Z,19.67
2017-12-01T02:34:42.407Z,18.90
2017-12-01T02:37:09.446Z,18.70
2017-12-01T02:39:36.511Z,18.30
2017-12-01T02:42:02.863Z,20.67
2017-12-01T02:44:29.133Z,17.73
2017-12-01T02:46:55.407Z,19.10
2017-12-01T02:49:21.687Z,24.00
2017-12-01T02:51:47.974Z,18.87
2017-12-01T02:54:14.290Z,17.43
2017-12-01T02:56:40.484Z,18.40
2017-12-01T02:59:06.771Z,21.67
2017-12-01T03:01:33.059Z,17.03
2017-12-01T03:04:00.110Z,16.40
2017-12-01T03:06:27.143Z,17.77
2017-12-01T03:08:53.471Z,18.67
2017-12-01T03:11:19.755Z,17.27
2017-12-01T03:13:46.080Z,23.33
2017-12-01T03:16:12.342Z,20.10
2017-12-01T03:18:38.623Z,19.37
2017-12-01T03:21:04.910Z,18.50
2017-12-01T03:23:31.226Z,18.40
2017-12-01T03:25:57.503Z,18.17
2017-12-01T03:28:23.851Z,16.10
2017-12-01T03:30:50.139Z,17.80
2017-12-01T03:33:16.434Z,18.70
2017-12-01T03:35:42.734Z,17.90
2017-12-01T03:38:08.993Z,19.60
2017-12-01T03:40:35.283Z,17.47
2017-12-01T03:43:02.281Z,17.90
2017-12-01T03:45:28.600Z,19.33
2017-12-01T03:47:54.864Z,18.60
2017-12-01T03:50:21.139Z,17.53
2017-12-01T03:52:47.381Z,16.13
2017-12-01T03:55:13.703Z,16.67
2017-12-01T03:57:39.983Z,16.50
2017-12-01T04:00:06.226Z,17.03
2017-12-01T04:02:33.259Z,18.00
2017-12-01T04:05:00.250Z,17.53
2017-12-01T04:07:26.555Z,21.97
2017-12-01T04:09:53.615Z,19.43
2017-12-01T04:12:19.879Z,15.77
2017-12-01T04:14:46.150Z,19.47
2017-12-01T04:17:12.574Z,18.97
2017-12-01T04:19:38.897Z,17.13
2017-12-01T04:22:05.962Z,15.70
2017-12-01T04:24:33.007Z,17.87
2017-12-01T04:27:00.075Z,16.80
2017-12-01T04:29:26.317Z,16.10
2017-12-01T04:31:52.588Z,19.93
2017-12-01T04:34:18.830Z,21.33
2017-12-01T04:36:45.075Z,21.07
2017-12-01T04:39:12.140Z,18.03
2017-12-01T04:41:39.106Z,17.30
2017-12-01T04:44:05.402Z,21.70
2017-12-01T04:46:32.554Z,19.27
2017-12-01T04:48:58.834Z,22.13
2017-12-01T04:51:25.124Z,22.70
2017-12-01T04:53:52.193Z,20.30
2017-12-01T04:56:18.492Z,21.80
2017-12-01T04:58:45.563Z,20.00
2017-12-01T05:01:11.882Z,20.67
2017-12-01T05:03:38.211Z,20.80
2017-12-01T05:06:04.479Z,18.03
2017-12-01T05:08:31.556Z,22.10
2017-12-01T05:10:57.833Z,18.80
2017-12-01T05:13:24.130Z,21.60
2017-12-01T05:15:51.080Z,19.43
2017-12-01T05:18:18.084Z,18.73
2017-12-01T05:20:44.402Z,19.77
2017-12-01T05:23:10.645Z,20.20
2017-12-01T05:25:36.954Z,25.50
2017-12-01T05:28:03.210Z,19.70
2017-12-01T05:30:29.516Z,24.47
2017-12-01T05:32:55.822Z,20.70
2017-12-01T05:35:22.102Z,19.80
2017-12-01T05:37:48.409Z,18.53
2017-12-01T05:43:08.474Z,19.70
2017-12-01T05:45:39.203Z,19.97
2017-12-01T05:48:06.281Z,18.80
2017-12-01T05:50:32.558Z,19.33
2017-12-01T05:52:58.843Z,18.90
2017-12-01T05:55:25.142Z,16.03
2017-12-01T05:57:52.171Z,19.17
2017-12-01T06:00:18.436Z,21.20
2017-12-01T06:02:44.637Z,15.70
2017-12-01T06:05:10.927Z,17.53
2017-12-01T06:07:37.172Z,20.03
2017-12-01T06:10:03.463Z,21.73
2017-12-01T06:12:29.722Z,19.33
2017-12-01T06:14:55.973Z,17.37
2017-12-01T06:17:22.213Z,20.50
2017-12-01T06:19:48.697Z,15.30
2017-12-01T06:22:14.981Z,14.20
2017-12-01T06:24:42.020Z,18.07
2017-12-01T06:27:08.365Z,15.70
2017-12-01T06:29:35.362Z,18.33
2017-12-01T06:32:01.701Z,21.23
2017-12-01T06:34:28.039Z,20.57
2017-12-01T06:36:54.310Z,19.90
2017-12-01T06:39:21.358Z,17.10
2017-12-01T06:41:48.376Z,16.43
2017-12-01T06:44:14.678Z,18.90
2017-12-01T06:46:40.959Z,20.23
2017-12-01T06:49:07.995Z,18.83
2017-12-01T06:51:34.250Z,17.80
2017-12-01T06:54:00.537Z,18.13
2017-12-01T06:56:26.866Z,16.90
2017-12-01T06:58:53.175Z,17.70
2017-12-01T07:01:19.440Z,18.57
2017-12-01T07:03:45.759Z,19.77
2017-12-01T07:06:12.858Z,17.47
2017-12-01T07:08:39.203Z,17.90
2017-12-01T07:11:05.480Z,17.43
2017-12-01T07:13:31.639Z,17.60
2017-12-01T07:15:57.862Z,18.53
2017-12-01T07:18:24.098Z,16.03
2017-12-01T07:20:50.360Z,17.37
2017-12-01T07:23:16.576Z,16.57
2017-12-01T07:25:42.847Z,18.10
2017-12-01T07:28:09.868Z,16.90
2017-12-01T07:30:36.097Z,14.00
2017-12-01T07:33:02.323Z,18.47
2017-12-01T07:35:28.580Z,17.07
2017-12-01T07:37:54.913Z,15.07
2017-12-01T07:40:21.936Z,15.33
2017-12-01T07:42:48.226Z,21.23
2017-12-01T07:45:20.468Z,15.17
2017-12-01T07:47:47.504Z,17.37
2017-12-01T07:50:14.569Z,16.10
2017-12-01T07:52:40.869Z,15.87
2017-12-01T07:55:07.197Z,21.27
2017-12-01T07:57:33.449Z,43.30
2017-12-01T08:00:00.422Z,17.97
2017-12-01T08:02:26.650Z,16.60
2017-12-01T08:04:52.884Z,28.67
2017-12-01T08:07:19.097Z,30.60
2017-12-01T08:09:46.069Z,37.10
2017-12-01T08:12:12.327Z,35.97
2017-12-01T08:14:38.592Z,32.10
2017-12-01T08:17:17.679Z,29.20
2017-12-01T08:19:43.921Z,29.57
2017-12-01T08:25:27.855Z,24.63
2017-12-01T08:27:54.076Z,30.00
2017-12-01T08:30:20.337Z,30.03
2017-12-01T08:32:46.563Z,26.73
2017-12-01T08:35:12.739Z,22.30
2017-12-01T08:37:39.704Z,25.30
2017-12-01T08:40:05.944Z,22.97
2017-12-01T08:42:32.225Z,23.40
2017-12-01T08:44:58.507Z,23.43
2017-12-01T08:47:24.810Z,22.33
2017-12-01T08:49:51.123Z,22.83
2017-12-01T08:52:18.162Z,23.20
2017-12-01T08:54:45.122Z,23.83
2017-12-01T08:57:12.141Z,25.33
2017-12-01T08:59:38.425Z,26.63
2017-12-01T09:02:04.735Z,21.07
2017-12-01T09:04:30.984Z,24.20
2017-12-01T09:06:57.245Z,29.60
2017-12-01T09:09:24.332Z,25.87
2017-12-01T09:11:50.597Z,23.40
2017-12-01T09:14:16.955Z,24.17
2017-12-01T09:16:43.958Z,21.07
2017-12-01T09:19:10.283Z,23.57
2017-12-01T09:21:36.564Z,23.43
2017-12-01T09:24:02.842Z,20.53
2017-12-01T09:26:29.135Z,24.17
2017-12-01T09:28:55.451Z,21.80
2017-12-01T09:31:21.750Z,21.63
2017-12-01T09:33:48.025Z,24.03
2017-12-01T09:36:15.042Z,29.20
2017-12-01T09:38:41.358Z,27.60
2017-12-01T09:41:07.687Z,24.23
2017-12-01T09:43:34.027Z,21.97
2017-12-01T09:46:00.344Z,20.73
2017-12-01T09:48:26.653Z,20.60
2017-12-01T09:50:52.870Z,20.77
2017-12-01T09:53:19.896Z,24.10
2017-12-01T10:04:52.893Z,20.10
2017-12-01T10:07:19.145Z,27.17
2017-12-01T10:09:45.368Z,22.37
2017-12-01T10:12:11.674Z,24.67
2017-12-01T10:14:37.940Z,28.70
2017-12-01T10:17:04.162Z,29.13
2017-12-01T10:19:30.443Z,21.40
2017-12-01T10:21:57.478Z,22.40
2017-12-01T10:24:23.747Z,28.20
2017-12-01T10:26:49.982Z,26.20
2017-12-01T10:29:16.221Z,29.63
2017-12-01T10:31:42.515Z,25.87
2017-12-01T10:34:09.560Z,25.17
2017-12-01T10:36:36.599Z,23.70
2017-12-01T10:39:03.632Z,19.80
2017-12-01T10:41:29.868Z,21.13
2017-12-01T10:43:56.158Z,24.57
2017-12-01T10:46:22.487Z,25.57
2017-12-01T10:48:48.735Z,28.03
2017-12-01T10:51:14.968Z,21.93
2017-12-01T10:53:41.223Z,26.43
2017-12-01T10:56:08.291Z,19.93
2017-12-01T10:58:35.183Z,23.10
2017-12-01T11:01:01.414Z,22.73
2017-12-01T11:03:27.635Z,25.00
2017-12-01T11:05:53.899Z,24.73
2017-12-01T11:08:20.853Z,24.17
2017-12-01T11:10:47.770Z,22.20
2017-12-01T11:13:13.952Z,24.73
2017-12-01T11:15:40.156Z,24.57
2017-12-01T11:18:07.195Z,22.23
2017-12-01T11:20:34.198Z,25.13
2017-12-01T11:23:01.446Z,24.07
2017-12-01T11:25:27.694Z,24.33
2017-12-01T11:27:53.933Z,24.53
2017-12-01T11:30:20.210Z,22.67
2017-12-01T11:32:46.440Z,23.70
2017-12-01T11:35:12.657Z,25.13
2017-12-01T11:37:38.893Z,24.00
2017-12-01T11:40:05.167Z,21.77
2017-12-01T11:42:32.105Z,23.07
2017-12-01T11:44:58.387Z,20.17
2017-12-01T11:47:24.655Z,24.13
2017-12-01T11:49:50.905Z,22.20
2017-12-01T11:52:17.207Z,20.47
2017-12-01T11:54:43.471Z,24.40
2017-12-01T11:57:09.791Z,21.07
2017-12-01T11:59:36.004Z,22.07
2017-12-01T12:02:02.275Z,21.27
2017-12-01T12:04:29.282Z,20.73
2017-12-01T12:06:55.585Z,19.00
2017-12-01T12:09:21.863Z,21.27
2017-12-01T12:11:48.165Z,17.17
2017-12-01T12:14:14.437Z,16.33
2017-12-01T12:16:40.775Z,13.93
2017-12-01T12:19:08.576Z,15.43
2017-12-01T12:21:34.910Z,17.00
2017-12-01T12:24:01.188Z,19.40
2017-12-01T12:26:27.478Z,22.83
2017-12-01T12:28:53.826Z,36.00
2017-12-01T12:31:20.069Z,27.20
2017-12-01T12:33:46.435Z,21.43
2017-12-01T12:36:12.672Z,24.37
2017-12-01T12:38:38.955Z,28.60
2017-12-01T12:41:05.258Z,27.83
2017-12-01T12:43:31.619Z,24.07
2017-12-01T12:45:57.916Z,25.70
2017-12-01T12:48:24.232Z,24.83
2017-12-01T12:50:50.528Z,28.03
2017-12-01T12:53:17.600Z,25.47
2017-12-01T12:55:43.979Z,24.57
2017-12-01T12:58:10.336Z,22.60
2017-12-01T13:00:36.689Z,22.80
2017-12-01T13:03:02.978Z,23.20
2017-12-01T13:05:30.020Z,24.40
2017-12-01T13:07:56.371Z,24.87
2017-12-01T13:10:23.386Z,27.27
2017-12-01T13:12:49.713Z,22.40
2017-12-01T13:15:15.981Z,28.30
2017-12-01T13:17:43.027Z,23.00
2017-12-01T13:20:10.079Z,22.70
2017-12-01T13:22:37.069Z,19.70
2017-12-01T13:25:03.333Z,24.23
2017-12-01T13:27:29.599Z,21.83
2017-12-01T13:29:56.612Z,22.07
2017-12-01T13:32:22.871Z,20.20
2017-12-01T13:34:50.470Z,19.27
2017-12-01T13:37:16.794Z,22.63
2017-12-01T13:39:43.044Z,21.50
2017-12-01T13:42:09.440Z,19.70
2017-12-01T13:44:35.740Z,19.97
2017-12-01T13:47:02.791Z,20.23
2017-12-01T13:49:29.829Z,20.43
2017-12-01T13:51:56.098Z,25.93
2017-12-01T13:54:22.382Z,23.73
2017-12-01T13:56:48.710Z,21.80
2017-12-01T13:59:15.641Z,23.93
2017-12-01T14:01:41.942Z,20.43
2017-12-01T14:04:08.516Z,32.63
2017-12-01T14:06:34.784Z,26.50
2017-12-01T14:09:01.096Z,17.80
2017-12-01T14:11:27.668Z,27.93
2017-12-01T14:13:53.934Z,23.20
2017-12-01T14:16:20.162Z,22.50
2017-12-01T14:18:46.395Z,20.07
2017-12-01T14:21:12.715Z,20.00
2017-12-01T14:23:38.991Z,19.90
2017-12-01T14:26:05.928Z,19.87
2017-12-01T14:28:32.849Z,19.63
2017-12-01T14:30:59.126Z,19.90
2017-12-01T14:33:25.388Z,21.33
2017-12-01T14:35:51.659Z,26.53
2017-12-01T14:38:18.691Z,17.70
2017-12-01T14:40:45.666Z,21.27
2017-12-01T14:43:11.903Z,22.83
2017-12-01T14:45:38.212Z,23.67
2017-12-01T14:48:05.270Z,21.83
2017-12-01T14:50:31.529Z,26.07
2017-12-01T14:52:57.816Z,22.37
2017-12-01T14:55:24.931Z,19.50
2017-12-01T14:57:51.183Z,27.60
2017-12-01T15:00:18.170Z,19.43
2017-12-01T15:02:44.428Z,29.93
2017-12-01T15:05:10.704Z,23.13
2017-12-01T15:07:37.723Z,25.60
2017-12-01T15:10:03.978Z,23.73
2017-12-01T15:12:30.954Z,25.33
2017-12-01T15:14:57.188Z,25.10
2017-12-01T15:17:23.512Z,23.30
2017-12-01T15:19:49.709Z,26.60
2017-12-01T15:22:16.729Z,25.97
2017-12-01T15:24:43.737Z,30.20
2017-12-01T15:27:09.943Z,27.57
2017-12-01T15:29:36.191Z,25.03
2017-12-01T15:32:02.481Z,27.10
2017-12-01T15:34:29.587Z,24.73
2017-12-01T15:36:55.875Z,27.30
2017-12-01T15:39:22.867Z,29.80
2017-12-01T15:41:49.179Z,24.80
2017-12-01T15:44:15.460Z,25.70
2017-12-01T15:46:42.492Z,27.70
2017-12-01T15:49:08.718Z,27.20
2017-12-01T15:51:35.044Z,50.90
2017-12-01T15:54:01.308Z,43.00
2017-12-01T15:56:28.401Z,44.57
2017-12-01T15:58:54.654Z,30.67
2017-12-01T16:01:20.995Z,26.80
2017-12-01T16:03:47.272Z,27.47
2017-12-01T16:06:13.550Z,28.23
2017-12-01T16:08:39.923Z,28.60
2017-12-01T16:11:06.182Z,29.23
2017-12-01T16:13:32.539Z,25.63
2017-12-01T16:15:58.820Z,26.70
2017-12-01T16:18:25.092Z,26.23
2017-12-01T16:20:51.329Z,26.40
2017-12-01T16:23:17.623Z,28.47
2017-12-01T16:25:43.946Z,30.40
2017-12-01T16:28:10.277Z,30.23
2017-12-01T16:30:36.615Z,33.50
2017-12-01T16:33:08.443Z,38.30
2017-12-01T16:35:29.189Z,46.33
2017-12-01T16:37:55.514Z,48.03
2017-12-01T16:40:21.831Z,40.80
2017-12-01T16:42:48.074Z,41.03
2017-12-01T16:45:14.392Z,38.63
2017-12-01T16:47:40.675Z,36.40
2017-12-01T16:50:06.992Z,35.37
2017-12-01T16:52:33.339Z,47.47
2017-12-01T16:55:00.315Z,37.57
2017-12-01T16:57:26.573Z,34.40
2017-12-01T16:59:52.898Z,32.80
2017-12-01T17:02:19.151Z,32.80
2017-12-01T17:04:45.428Z,38.00
2017-12-01T17:07:11.776Z,39.83
2017-12-01T17:09:38.043Z,39.00
2017-12-01T17:12:04.356Z,31.30
2017-12-01T17:14:30.675Z,32.60
2017-12-01T17:16:56.939Z,34.63
2017-12-01T17:19:23.246Z,33.83
2017-12-01T17:21:49.552Z,31.97
2017-12-01T17:24:15.876Z,34.83
2017-12-01T17:26:42.187Z,34.97
2017-12-01T17:29:09.237Z,30.27
2017-12-01T17:31:36.239Z,29.40
2017-12-01T17:34:02.482Z,37.97
2017-12-01T17:36:28.791Z,28.20
2017-12-01T17:38:55.123Z,34.47
2017-12-01T17:41:21.422Z,35.67
2017-12-01T17:43:47.784Z,37.30
2017-12-01T17:46:14.112Z,42.03
2017-12-01T17:48:40.428Z,42.03
2017-12-01T17:51:06.747Z,37.53
2017-12-01T17:53:33.066Z,40.53
2017-12-01T17:55:59.385Z,36.57
2017-12-01T17:58:25.672Z,35.70
2017-12-01T18:00:51.936Z,33.37
2017-12-01T18:03:19.040Z,31.27
2017-12-01T18:05:45.337Z,32.10
2017-12-01T18:08:11.623Z,33.40
2017-12-01T18:10:37.956Z,31.73
2017-12-01T18:13:04.245Z,30.00
2017-12-01T18:15:30.554Z,25.27
2017-12-01T18:17:56.851Z,30.37
2017-12-01T18:20:23.090Z,33.70
2017-12-01T18:22:50.117Z,26.60
2017-12-01T18:25:16.471Z,27.20
2017-12-01T18:27:43.584Z,24.90
2017-12-01T18:30:09.840Z,27.43
2017-12-01T18:32:36.151Z,28.90
2017-12-01T18:35:02.710Z,28.93
2017-12-01T18:37:29.842Z,24.47
2017-12-01T18:39:56.153Z,25.87
2017-12-01T18:42:22.548Z,26.67
2017-12-01T18:44:49.008Z,28.53
2017-12-01T18:47:15.307Z,30.77
2017-12-01T18:49:42.378Z,26.50
2017-12-01T18:52:08.692Z,26.40
2017-12-01T18:54:34.984Z,33.27
2017-12-01T18:57:01.310Z,28.67
2017-12-01T18:59:27.607Z,26.67
2017-12-01T19:01:53.888Z,27.30
2017-12-01T19:04:20.571Z,29.03
2017-12-01T19:06:46.964Z,23.93
2017-12-01T19:09:13.961Z,30.10
2017-12-01T19:11:40.332Z,26.83
2017-12-01T19:14:06.631Z,28.00
2017-12-01T19:16:32.982Z,29.00
2017-12-01T19:18:59.336Z,35.23
2017-12-01T19:21:26.410Z,27.20
2017-12-01T19:23:52.763Z,37.00
2017-12-01T19:26:19.066Z,28.70
2017-12-01T19:28:49.106Z,40.53
2017-12-01T19:31:22.702Z,33.60
2017-12-01T19:33:50.937Z,31.27
2017-12-01T19:36:17.275Z,39.90
2017-12-01T19:38:44.327Z,31.13
2017-12-01T19:41:11.392Z,34.53
2017-12-01T19:43:37.699Z,29.90
2017-12-01T19:46:04.683Z,34.93
2017-12-01T19:48:30.983Z,33.00
2017-12-01T19:50:57.266Z,31.93
2017-12-01T19:53:23.586Z,28.90
2017-12-01T19:55:49.815Z,28.67
2017-12-01T19:58:16.148Z,37.73
2017-12-01T20:00:42.422Z,29.93
2017-12-01T20:03:09.467Z,32.33
2017-12-01T20:05:36.532Z,39.83
2017-12-01T20:08:02.822Z,37.50
2017-12-01T20:10:29.119Z,41.20
2017-12-01T20:12:55.380Z,59.73
2017-12-01T20:15:21.705Z,51.03
2017-12-01T20:17:48.043Z,41.03
2017-12-01T20:20:14.340Z,41.00
2017-12-01T20:22:40.660Z,46.43
2017-12-01T20:25:06.914Z,34.57
2017-12-01T20:27:33.226Z,60.67
2017-12-01T20:29:59.594Z,86.77
2017-12-01T20:32:25.849Z,101.80
2017-12-01T20:34:52.891Z,48.07
2017-12-01T20:37:20.586Z,57.83
2017-12-01T20:39:46.882Z,50.80
2017-12-01T20:42:14.008Z,85.30
2017-12-01T20:44:40.352Z,57.07
2017-12-01T20:47:07.392Z,110.00
2017-12-01T21:07:12.883Z,41.90
2017-12-01T21:09:39.148Z,46.97
2017-12-01T21:12:05.450Z,41.80
2017-12-01T21:14:32.533Z,42.53
2017-12-01T21:16:58.837Z,41.40
2017-12-01T21:19:25.925Z,45.90
2017-12-01T21:21:52.208Z,49.33
2017-12-01T21:24:18.595Z,55.03
2017-12-01T21:26:44.949Z,54.73
2017-12-01T21:29:11.207Z,51.47
2017-12-01T21:31:38.207Z,47.07
2017-12-01T21:34:04.546Z,77.60
2017-12-01T21:36:31.638Z,59.37
2017-12-01T21:38:58.710Z,58.63
2017-12-01T21:41:25.186Z,52.00
2017-12-01T21:43:51.531Z,52.23
2017-12-01T21:46:17.756Z,70.50
2017-12-01T21:48:43.954Z,52.70
2017-12-01T21:51:10.276Z,48.53
2017-12-01T21:53:36.564Z,55.53
2017-12-01T21:56:03.551Z,53.93
2017-12-01T21:58:29.758Z,52.37
2017-12-01T22:00:56.002Z,52.03
2017-12-01T22:03:22.243Z,37.10
2017-12-01T22:05:48.495Z,34.00
2017-12-01T22:08:14.679Z,35.80
2017-12-01T22:10:41.030Z,37.17
2017-12-01T22:13:07.372Z,32.23
2017-12-01T22:15:33.630Z,49.03
2017-12-01T22:18:00.001Z,36.20
2017-12-01T22:20:26.269Z,32.27
2017-12-01T22:22:52.568Z,31.27
2017-12-01T22:25:18.807Z,31.43
2017-12-01T22:27:45.190Z,31.73
2017-12-01T22:30:12.194Z,37.33
2017-12-01T22:32:38.513Z,34.83
2017-12-01T22:35:04.775Z,30.63
2017-12-01T22:37:31.794Z,33.20
2017-12-01T22:39:58.065Z,31.97
2017-12-01T22:42:25.108Z,33.00
2017-12-01T22:44:51.395Z,41.33
2017-12-01T22:47:17.679Z,32.97
2017-12-01T22:49:44.655Z,29.23
2017-12-01T22:52:10.983Z,32.57
2017-12-01T22:54:37.218Z,38.13
2017-12-01T22:57:03.464Z,26.93
2017-12-01T22:59:29.770Z,68.00
2017-12-01T23:01:55.987Z,146.40
2017-12-01T23:04:23.012Z,52.73
2017-12-01T23:06:50.004Z,33.07
2017-12-01T23:09:16.272Z,31.50
2017-12-01T23:11:42.566Z,32.00
2017-12-01T23:14:08.876Z,28.97
2017-12-01T23:16:35.137Z,32.17
2017-12-01T23:19:01.430Z,27.70
2017-12-01T23:21:27.627Z,35.10
2017-12-01T23:23:54.644Z,29.70
2017-12-01T23:26:20.874Z,44.73
2017-12-01T23:28:47.132Z,29.27
2017-12-01T23:31:13.386Z,30.33
2017-12-01T23:33:40.454Z,57.97
2017-12-01T23:36:06.734Z,39.77
2017-12-01T23:38:32.973Z,28.00
2017-12-01T23:41:00.020Z,27.70
2017-12-01T23:43:27.026Z,31.07
2017-12-01T23:45:53.269Z,40.57
2017-12-01T23:48:19.578Z,29.07
2017-12-01T23:50:45.900Z,153.77
2017-12-01T23:53:12.210Z,42.10
2017-12-01T23:55:38.507Z,58.03
2017-12-01T23:58:05.447Z,40.93
